createdAt,value
2018-09-01T00:00:50.777Z,24.60
2018-09-01T00:01:50.749Z,24.63
2018-09-01T00:02:50.701Z,24.66
2018-09-01T00:03:50.655Z,24.65
2018-09-01T00:04:50.614Z,24.68
2018-09-01T00:05:50.570Z,24.57
2018-09-01T00:06:50.520Z,24.57
2018-09-01T00:07:50.470Z,24.60
2018-09-01T00:08:50.438Z,24.54
2018-09-01T00:09:50.397Z,24.45
2018-09-01T00:10:50.360Z,24.61
2018-09-01T00:11:50.310Z,24.58
2018-09-01T00:12:50.263Z,24.63
2018-09-01T00:13:50.215Z,24.50
2018-09-01T00:14:50.173Z,24.48
2018-09-01T00:15:50.130Z,24.51
2018-09-01T00:16:50.087Z,24.48
2018-09-01T00:17:50.033Z,24.42
2018-09-01T00:18:49.995Z,24.50
2018-09-01T00:19:49.944Z,24.55
2018-09-01T00:20:49.893Z,24.54
2018-09-01T00:21:49.868Z,24.43
2018-09-01T00:22:49.818Z,24.48
2018-09-01T00:23:49.766Z,24.45
2018-09-01T00:24:49.728Z,24.48
2018-09-01T00:25:49.692Z,24.42
2018-09-01T00:26:49.642Z,24.40
2018-09-01T00:27:49.591Z,24.42
2018-09-01T00:28:49.553Z,24.38
2018-09-01T00:29:49.495Z,24.42
2018-09-01T00:30:49.465Z,24.36
2018-09-01T00:31:49.419Z,24.43
2018-09-01T00:32:49.376Z,24.40
2018-09-01T00:33:49.335Z,24.42
2018-09-01T00:34:49.287Z,24.42
2018-09-01T00:35:49.244Z,24.43
2018-09-01T00:36:49.201Z,24.38
2018-09-01T00:37:49.157Z,24.24
2018-09-01T00:38:49.107Z,24.35
2018-09-01T00:39:49.069Z,24.38
2018-09-01T00:40:49.021Z,24.38
2018-09-01T00:41:48.960Z,24.30
2018-09-01T00:42:48.930Z,24.36
2018-09-01T00:43:48.890Z,24.42
2018-09-01T00:44:48.842Z,24.35
2018-09-01T00:45:48.799Z,24.39
2018-09-01T00:46:48.755Z,24.16
2018-09-01T00:47:48.703Z,24.32
2018-09-01T00:48:48.671Z,24.28
2018-09-01T00:49:48.608Z,24.17
2018-09-01T00:50:48.572Z,24.23
2018-09-01T00:51:48.532Z,24.24
2018-09-01T00:52:48.489Z,24.23
2018-09-01T00:53:48.430Z,24.06
2018-09-01T00:54:48.395Z,24.11
2018-09-01T00:55:48.351Z,24.11
2018-09-01T00:56:48.295Z,24.14
2018-09-01T00:57:48.251Z,24.02
2018-09-01T00:58:48.223Z,24.06
2018-09-01T00:59:48.174Z,24.08
2018-09-01T01:00:48.133Z,24.06
2018-09-01T01:01:48.094Z,24.03
2018-09-01T01:02:48.047Z,24.05
2018-09-01T01:03:48.001Z,23.98
2018-09-01T01:04:47.955Z,23.93
2018-09-01T01:05:47.919Z,23.92
2018-09-01T01:06:47.859Z,23.96
2018-09-01T01:07:47.821Z,24.02
2018-09-01T01:08:47.779Z,24.01
2018-09-01T01:09:47.739Z,23.92
2018-09-01T01:10:47.693Z,23.88
2018-09-01T01:11:47.642Z,23.91
2018-09-01T01:12:47.601Z,23.87
2018-09-01T01:13:47.556Z,23.81
2018-09-01T01:14:47.496Z,23.87
2018-09-01T01:15:47.476Z,23.74
2018-09-01T01:16:47.419Z,23.74
2018-09-01T01:17:47.377Z,23.71
2018-09-01T01:18:47.314Z,23.71
2018-09-01T01:19:47.287Z,23.59
2018-09-01T01:20:47.243Z,23.54
2018-09-01T01:21:47.191Z,23.58
2018-09-01T01:22:47.150Z,23.61
2018-09-01T01:23:47.111Z,23.51
2018-09-01T01:24:47.071Z,23.51
2018-09-01T01:25:47.006Z,23.54
2018-09-01T01:26:46.969Z,23.59
2018-09-01T01:27:46.923Z,23.55
2018-09-01T01:28:46.883Z,23.55
2018-09-01T01:29:46.838Z,23.63
2018-09-01T01:30:46.794Z,23.58
2018-09-01T01:31:46.752Z,23.48
2018-09-01T01:32:46.699Z,23.56
2018-09-01T01:33:46.662Z,23.50
2018-09-01T01:34:46.620Z,23.47
2018-09-01T01:35:46.559Z,23.47
2018-09-01T01:36:46.522Z,23.44
2018-09-01T01:37:46.482Z,23.47
2018-09-01T01:38:46.437Z,23.40
2018-09-01T01:39:46.388Z,23.39
2018-09-01T01:40:46.347Z,23.44
2018-09-01T01:41:46.303Z,23.40
2018-09-01T01:42:46.257Z,23.47
2018-09-01T01:43:46.215Z,23.51
2018-09-01T01:44:46.167Z,23.44
2018-09-01T01:45:46.126Z,23.48
2018-09-01T01:46:46.077Z,23.47
2018-09-01T01:47:46.034Z,23.40
2018-09-01T01:48:45.991Z,23.41
2018-09-01T01:49:45.951Z,23.39
2018-09-01T01:50:45.899Z,23.37
2018-09-01T01:51:45.853Z,23.36
2018-09-01T01:52:45.806Z,23.31
2018-09-01T01:53:45.764Z,23.37
2018-09-01T01:54:45.719Z,23.44
2018-09-01T01:55:45.674Z,23.32
2018-09-01T01:56:45.629Z,23.32
2018-09-01T01:57:45.590Z,23.28
2018-09-01T01:58:45.534Z,23.24
2018-09-01T01:59:45.497Z,23.28
2018-09-01T02:00:45.457Z,23.27
2018-09-01T02:01:45.413Z,23.24
2018-09-01T02:02:45.359Z,23.18
2018-09-01T02:03:45.324Z,23.15
2018-09-01T02:04:45.256Z,23.08
2018-09-01T02:05:45.212Z,23.13
2018-09-01T02:06:45.183Z,23.13
2018-09-01T02:07:45.143Z,23.06
2018-09-01T02:08:45.090Z,23.15
2018-09-01T02:09:45.053Z,23.08
2018-09-01T02:10:45.000Z,23.03
2018-09-01T02:11:44.957Z,23.05
2018-09-01T02:12:44.918Z,23.10
2018-09-01T02:13:44.862Z,23.17
2018-09-01T02:14:44.812Z,23.13
2018-09-01T02:15:44.776Z,23.12
2018-09-01T02:16:44.734Z,22.99
2018-09-01T02:17:44.670Z,23.05
2018-09-01T02:18:44.634Z,22.96
2018-09-01T02:19:44.598Z,23.00
2018-09-01T02:20:44.556Z,22.98
2018-09-01T02:21:44.514Z,23.06
2018-09-01T02:22:44.457Z,23.08
2018-09-01T02:23:44.419Z,23.09
2018-09-01T02:24:44.370Z,23.05
2018-09-01T02:25:44.329Z,23.05
2018-09-01T02:26:44.277Z,23.05
2018-09-01T02:27:44.236Z,23.06
2018-09-01T02:28:44.194Z,23.05
2018-09-01T02:29:44.144Z,23.00
2018-09-01T02:30:44.102Z,22.99
2018-09-01T02:31:44.052Z,23.02
2018-09-01T02:32:44.020Z,23.02
2018-09-01T02:33:43.963Z,22.99
2018-09-01T02:34:43.908Z,22.98
2018-09-01T02:35:43.883Z,22.98
2018-09-01T02:36:43.827Z,22.94
2018-09-01T02:37:43.794Z,22.88
2018-09-01T02:38:43.740Z,22.91
2018-09-01T02:39:43.680Z,22.90
2018-09-01T02:40:43.652Z,22.84
2018-09-01T02:41:43.606Z,22.81
2018-09-01T02:42:43.559Z,22.87
2018-09-01T02:43:43.518Z,22.76
2018-09-01T02:44:43.470Z,22.85
2018-09-01T02:45:43.429Z,22.80
2018-09-01T02:46:43.383Z,22.78
2018-09-01T02:47:43.334Z,22.75
2018-09-01T02:48:43.286Z,22.78
2018-09-01T02:49:43.248Z,22.81
2018-09-01T02:50:43.195Z,22.90
2018-09-01T02:51:43.160Z,22.81
2018-09-01T02:52:43.106Z,22.78
2018-09-01T02:53:43.070Z,22.73
2018-09-01T02:54:43.021Z,22.75
2018-09-01T02:55:42.975Z,22.69
2018-09-01T02:56:42.931Z,22.72
2018-09-01T02:57:42.893Z,22.75
2018-09-01T02:58:42.841Z,22.73
2018-09-01T02:59:42.795Z,22.76
2018-09-01T03:00:42.746Z,22.73
2018-09-01T03:01:42.701Z,22.69
2018-09-01T03:02:42.765Z,22.70
2018-09-01T03:03:42.615Z,22.65
2018-09-01T03:04:42.560Z,22.66
2018-09-01T03:05:42.531Z,22.73
2018-09-01T03:06:42.478Z,22.70
2018-09-01T03:07:42.429Z,22.80
2018-09-01T03:08:42.391Z,22.66
2018-09-01T03:09:42.347Z,22.69
2018-09-01T03:10:42.308Z,22.69
2018-09-01T03:11:42.258Z,22.70
2018-09-01T03:12:42.195Z,22.60
2018-09-01T03:13:42.146Z,22.65
2018-09-01T03:14:42.124Z,22.55
2018-09-01T03:15:42.068Z,22.53
2018-09-01T03:16:42.030Z,22.50
2018-09-01T03:17:41.972Z,22.51
2018-09-01T03:18:41.942Z,22.54
2018-09-01T03:19:41.901Z,22.66
2018-09-01T03:20:41.845Z,22.70
2018-09-01T03:21:41.814Z,22.70
2018-09-01T03:22:41.753Z,22.54
2018-09-01T03:23:41.715Z,22.54
2018-09-01T03:24:41.670Z,22.53
2018-09-01T03:25:41.616Z,22.53
2018-09-01T03:26:41.591Z,22.55
2018-09-01T03:27:41.531Z,22.54
2018-09-01T03:28:41.493Z,22.59
2018-09-01T03:29:41.439Z,22.53
2018-09-01T03:30:41.434Z,22.48
2018-09-01T03:31:41.343Z,22.50
2018-09-01T03:32:41.306Z,22.50
2018-09-01T03:33:41.245Z,22.45
2018-09-01T03:34:41.215Z,22.50
2018-09-01T03:35:41.157Z,22.47
2018-09-01T03:36:41.128Z,22.57
2018-09-01T03:37:41.087Z,22.51
2018-09-01T03:38:41.032Z,22.43
2018-09-01T03:39:40.990Z,22.39
2018-09-01T03:40:40.947Z,22.32
2018-09-01T03:41:40.901Z,22.33
2018-09-01T03:42:40.851Z,22.38
2018-09-01T03:43:40.848Z,22.39
2018-09-01T03:44:40.771Z,22.28
2018-09-01T03:45:40.713Z,22.32
2018-09-01T03:46:40.678Z,22.20
2018-09-01T03:47:40.630Z,22.22
2018-09-01T03:48:40.577Z,22.22
2018-09-01T03:49:40.539Z,22.23
2018-09-01T03:50:40.500Z,22.17
2018-09-01T03:51:40.448Z,22.11
2018-09-01T03:52:40.397Z,22.08
2018-09-01T03:53:40.350Z,22.06
2018-09-01T03:54:40.317Z,22.06
2018-09-01T03:55:40.254Z,22.02
2018-09-01T03:56:40.222Z,22.00
2018-09-01T03:57:40.178Z,22.02
2018-09-01T03:58:40.124Z,22.02
2018-09-01T03:59:40.089Z,22.02
2018-09-01T04:00:40.038Z,22.10
2018-09-01T04:01:39.996Z,22.00
2018-09-01T04:02:39.948Z,22.10
2018-09-01T04:03:39.906Z,22.06
2018-09-01T04:04:39.855Z,22.06
2018-09-01T04:05:39.812Z,22.00
2018-09-01T04:06:39.765Z,22.06
2018-09-01T04:07:39.723Z,22.14
2018-09-01T04:08:39.678Z,21.99
2018-09-01T04:09:39.614Z,22.14
2018-09-01T04:10:39.586Z,22.11
2018-09-01T04:11:39.550Z,22.10
2018-09-01T04:12:39.492Z,22.08
2018-09-01T04:13:39.447Z,22.13
2018-09-01T04:14:39.410Z,22.04
2018-09-01T04:15:39.368Z,21.99
2018-09-01T04:16:39.313Z,21.99
2018-09-01T04:17:39.261Z,21.93
2018-09-01T04:18:39.221Z,21.88
2018-09-01T04:19:39.177Z,21.77
2018-09-01T04:20:39.127Z,21.83
2018-09-01T04:21:39.089Z,21.91
2018-09-01T04:22:39.041Z,21.77
2018-09-01T04:23:38.998Z,21.80
2018-09-01T04:24:38.939Z,21.75
2018-09-01T04:25:38.909Z,21.77
2018-09-01T04:26:38.860Z,21.76
2018-09-01T04:27:38.814Z,21.77
2018-09-01T04:28:38.759Z,21.85
2018-09-01T04:29:38.724Z,21.82
2018-09-01T04:30:38.678Z,21.89
2018-09-01T04:31:38.631Z,21.83
2018-09-01T04:32:38.587Z,21.93
2018-09-01T04:33:38.536Z,21.76
2018-09-01T04:34:38.496Z,21.89
2018-09-01T04:35:38.452Z,21.77
2018-09-01T04:36:38.403Z,21.89
2018-09-01T04:37:38.346Z,21.79
2018-09-01T04:38:38.310Z,21.82
2018-09-01T04:39:38.267Z,21.98
2018-09-01T04:40:38.224Z,21.89
2018-09-01T04:41:38.175Z,21.96
2018-09-01T04:42:38.133Z,21.92
2018-09-01T04:43:38.082Z,21.96
2018-09-01T04:44:38.045Z,21.92
2018-09-01T04:45:38.002Z,22.04
2018-09-01T04:46:37.948Z,21.99
2018-09-01T04:47:37.905Z,21.92
2018-09-01T04:48:37.858Z,21.89
2018-09-01T04:49:37.815Z,21.96
2018-09-01T04:50:37.769Z,21.89
2018-09-01T04:51:37.718Z,21.98
2018-09-01T04:52:37.677Z,21.85
2018-09-01T04:53:37.633Z,21.89
2018-09-01T04:54:37.587Z,21.85
2018-09-01T04:55:37.542Z,21.85
2018-09-01T04:56:37.497Z,21.88
2018-09-01T04:57:37.447Z,21.82
2018-09-01T04:58:37.412Z,21.80
2018-09-01T04:59:37.359Z,21.91
2018-09-01T05:00:37.303Z,21.88
2018-09-01T05:01:37.267Z,21.91
2018-09-01T05:02:37.226Z,21.92
2018-09-01T05:03:37.178Z,21.91
2018-09-01T05:04:37.131Z,21.88
2018-09-01T05:05:37.088Z,21.89
2018-09-01T05:06:37.035Z,21.89
2018-09-01T05:07:36.996Z,21.83
2018-09-01T05:08:36.951Z,21.75
2018-09-01T05:09:36.907Z,21.77
2018-09-01T05:10:36.859Z,21.83
2018-09-01T05:11:36.817Z,21.76
2018-09-01T05:12:36.767Z,21.82
2018-09-01T05:13:36.727Z,21.75
2018-09-01T05:14:36.677Z,21.76
2018-09-01T05:15:36.638Z,21.77
2018-09-01T05:16:36.573Z,21.75
2018-09-01T05:17:36.542Z,21.76
2018-09-01T05:18:36.487Z,21.76
2018-09-01T05:19:36.438Z,21.76
2018-09-01T05:20:36.391Z,21.72
2018-09-01T05:21:36.361Z,21.64
2018-09-01T05:22:36.314Z,21.62
2018-09-01T05:23:36.262Z,21.61
2018-09-01T05:24:36.214Z,21.64
2018-09-01T05:25:36.179Z,21.66
2018-09-01T05:26:36.131Z,21.54
2018-09-01T05:27:36.074Z,21.61
2018-09-01T05:28:36.046Z,21.64
2018-09-01T05:29:35.996Z,21.51
2018-09-01T05:30:35.957Z,21.54
2018-09-01T05:31:35.898Z,21.55
2018-09-01T05:32:35.852Z,21.46
2018-09-01T05:33:35.818Z,21.46
2018-09-01T05:34:35.768Z,21.52
2018-09-01T05:35:35.728Z,21.35
2018-09-01T05:36:35.758Z,21.48
2018-09-01T05:37:35.630Z,21.50
2018-09-01T05:38:35.572Z,21.40
2018-09-01T05:39:35.542Z,21.48
2018-09-01T05:40:35.494Z,21.40
2018-09-01T05:41:35.456Z,21.36
2018-09-01T05:42:35.403Z,21.32
2018-09-01T05:43:35.388Z,21.29
2018-09-01T05:44:35.309Z,21.27
2018-09-01T05:45:35.268Z,21.29
2018-09-01T05:46:35.226Z,21.32
2018-09-01T05:47:35.175Z,21.32
2018-09-01T05:48:35.118Z,21.40
2018-09-01T05:49:35.084Z,21.33
2018-09-01T05:50:35.041Z,21.33
2018-09-01T05:51:34.987Z,21.36
2018-09-01T05:52:34.948Z,21.35
2018-09-01T05:53:34.903Z,21.22
2018-09-01T05:54:34.842Z,21.21
2018-09-01T05:55:34.818Z,21.20
2018-09-01T05:56:34.765Z,21.18
2018-09-01T05:57:34.719Z,21.06
2018-09-01T05:58:34.670Z,21.15
2018-09-01T05:59:34.636Z,21.15
2018-09-01T06:00:34.674Z,21.22
2018-09-01T06:01:34.523Z,21.22
2018-09-01T06:02:34.493Z,21.14
2018-09-01T06:03:34.448Z,21.20
2018-09-01T06:04:34.399Z,21.06
2018-09-01T06:05:34.358Z,21.06
2018-09-01T06:06:34.307Z,21.06
2018-09-01T06:07:34.253Z,21.05
2018-09-01T06:08:34.218Z,21.06
2018-09-01T06:09:34.167Z,21.05
2018-09-01T06:10:34.122Z,21.05
2018-09-01T06:11:34.077Z,20.96
2018-09-01T06:12:34.031Z,20.96
2018-09-01T06:13:33.986Z,20.92
2018-09-01T06:14:33.935Z,20.80
2018-09-01T06:15:33.880Z,20.87
2018-09-01T06:16:33.855Z,20.78
2018-09-01T06:17:33.893Z,20.84
2018-09-01T06:18:33.759Z,20.81
2018-09-01T06:19:33.705Z,20.74
2018-09-01T06:20:33.659Z,20.78
2018-09-01T06:21:33.624Z,20.80
2018-09-01T06:22:33.569Z,20.74
2018-09-01T06:23:33.528Z,20.75
2018-09-01T06:24:33.476Z,20.74
2018-09-01T06:25:33.434Z,20.77
2018-09-01T06:26:33.389Z,20.78
2018-09-01T06:27:33.342Z,20.78
2018-09-01T06:28:33.296Z,20.78
2018-09-01T06:29:33.252Z,20.67
2018-09-01T06:30:33.207Z,20.75
2018-09-01T06:31:33.155Z,20.70
2018-09-01T06:32:33.113Z,20.69
2018-09-01T06:33:33.066Z,20.63
2018-09-01T06:34:33.050Z,20.63
2018-09-01T06:35:32.971Z,20.66
2018-09-01T06:36:32.924Z,20.62
2018-09-01T06:37:32.928Z,20.63
2018-09-01T06:38:32.837Z,20.69
2018-09-01T06:39:32.820Z,20.65
2018-09-01T06:40:32.745Z,20.78
2018-09-01T06:41:32.695Z,20.82
2018-09-01T06:42:32.654Z,20.82
2018-09-01T06:43:32.610Z,20.97
2018-09-01T06:44:32.562Z,20.87
2018-09-01T06:45:32.518Z,20.90
2018-09-01T06:46:32.465Z,20.87
2018-09-01T06:47:32.423Z,20.87
2018-09-01T06:48:32.370Z,20.75
2018-09-01T06:49:32.316Z,20.95
2018-09-01T06:50:32.290Z,20.97
2018-09-01T06:51:32.274Z,20.96
2018-09-01T06:52:32.195Z,20.95
2018-09-01T06:53:32.143Z,20.84
2018-09-01T06:54:32.111Z,20.75
2018-09-01T06:55:32.040Z,20.72
2018-09-01T06:56:32.012Z,20.75
2018-09-01T06:57:31.966Z,20.70
2018-09-01T06:58:31.926Z,20.65
2018-09-01T06:59:31.857Z,20.59
2018-09-01T07:00:31.826Z,20.51
2018-09-01T07:01:31.787Z,20.47
2018-09-01T07:02:31.741Z,20.48
2018-09-01T07:03:31.691Z,20.43
2018-09-01T07:04:31.633Z,20.48
2018-09-01T07:05:31.595Z,20.50
2018-09-01T07:06:31.557Z,20.47
2018-09-01T07:07:31.512Z,20.47
2018-09-01T07:08:31.444Z,20.40
2018-09-01T07:09:31.417Z,20.36
2018-09-01T07:10:31.351Z,20.40
2018-09-01T07:11:31.325Z,20.40
2018-09-01T07:12:31.276Z,20.41
2018-09-01T07:13:31.224Z,20.56
2018-09-01T07:14:31.232Z,20.66
2018-09-01T07:15:31.136Z,20.52
2018-09-01T07:16:31.096Z,20.58
2018-09-01T07:17:31.046Z,20.52
2018-09-01T07:18:30.993Z,20.62
2018-09-01T07:19:30.961Z,20.51
2018-09-01T07:20:30.903Z,20.50
2018-09-01T07:21:30.849Z,20.62
2018-09-01T07:22:30.817Z,20.59
2018-09-01T07:23:30.771Z,20.55
2018-09-01T07:24:30.720Z,20.47
2018-09-01T07:25:30.677Z,20.55
2018-09-01T07:26:30.632Z,20.51
2018-09-01T07:27:30.592Z,20.58
2018-09-01T07:28:30.541Z,20.63
2018-09-01T07:29:30.491Z,20.63
2018-09-01T07:30:30.659Z,20.62
2018-09-01T07:31:30.752Z,20.59
2018-09-01T07:32:30.345Z,20.44
2018-09-01T07:33:30.319Z,20.43
2018-09-01T07:34:30.265Z,20.39
2018-09-01T07:35:30.216Z,20.36
2018-09-01T07:36:30.168Z,20.31
2018-09-01T07:37:30.134Z,20.29
2018-09-01T07:38:30.073Z,20.36
2018-09-01T07:39:30.030Z,20.39
2018-09-01T07:40:29.985Z,20.37
2018-09-01T07:41:29.941Z,20.36
2018-09-01T07:42:29.897Z,20.37
2018-09-01T07:43:29.847Z,20.48
2018-09-01T07:44:29.808Z,20.44
2018-09-01T07:45:29.741Z,20.41
2018-09-01T07:46:29.712Z,20.58
2018-09-01T07:47:29.663Z,20.52
2018-09-01T07:48:29.613Z,20.52
2018-09-01T07:49:29.560Z,20.40
2018-09-01T07:50:29.523Z,20.41
2018-09-01T07:51:29.480Z,20.37
2018-09-01T07:52:29.431Z,20.21
2018-09-01T07:53:29.386Z,20.22
2018-09-01T07:54:29.399Z,20.21
2018-09-01T07:55:29.297Z,20.18
2018-09-01T07:56:29.251Z,20.22
2018-09-01T07:57:29.204Z,20.19
2018-09-01T07:58:29.160Z,20.10
2018-09-01T07:59:29.116Z,20.14
2018-09-01T08:00:29.064Z,20.22
2018-09-01T08:01:29.022Z,20.18
2018-09-01T08:02:28.976Z,20.18
2018-09-01T08:03:28.923Z,20.21
2018-09-01T08:04:28.882Z,20.10
2018-09-01T08:05:28.848Z,20.18
2018-09-01T08:06:28.777Z,20.03
2018-09-01T08:07:28.759Z,20.09
2018-09-01T08:08:28.700Z,19.99
2018-09-01T08:09:28.635Z,20.07
2018-09-01T08:10:28.588Z,20.10
2018-09-01T08:11:28.550Z,20.10
2018-09-01T08:12:28.517Z,20.09
2018-09-01T08:13:28.466Z,19.99
2018-09-01T08:14:28.447Z,20.09
2018-09-01T08:15:28.379Z,20.11
2018-09-01T08:16:28.328Z,20.06
2018-09-01T08:17:28.281Z,20.09
2018-09-01T08:18:28.223Z,20.11
2018-09-01T08:19:28.189Z,20.19
2018-09-01T08:20:28.149Z,20.26
2018-09-01T08:21:28.095Z,20.18
2018-09-01T08:22:28.054Z,20.16
2018-09-01T08:23:27.998Z,20.09
2018-09-01T08:24:27.959Z,20.04
2018-09-01T08:25:27.917Z,20.06
2018-09-01T08:26:27.863Z,20.00
2018-09-01T08:27:27.820Z,19.92
2018-09-01T08:28:27.757Z,19.94
2018-09-01T08:29:27.723Z,20.18
2018-09-01T08:30:27.663Z,20.00
2018-09-01T08:31:27.629Z,20.06
2018-09-01T08:32:27.571Z,20.11
2018-09-01T08:33:27.570Z,20.11
2018-09-01T08:34:27.497Z,20.14
2018-09-01T08:35:27.454Z,20.11
2018-09-01T08:36:27.404Z,20.02
2018-09-01T08:37:27.355Z,20.07
2018-09-01T08:38:27.304Z,20.04
2018-09-01T08:39:27.261Z,19.96
2018-09-01T08:40:27.218Z,20.09
2018-09-01T08:41:27.157Z,19.96
2018-09-01T08:42:27.125Z,19.86
2018-09-01T08:43:27.080Z,19.92
2018-09-01T08:44:27.021Z,19.89
2018-09-01T08:45:27.125Z,19.96
2018-09-01T08:46:26.939Z,19.92
2018-09-01T08:47:26.894Z,19.86
2018-09-01T08:48:26.845Z,19.91
2018-09-01T08:49:26.799Z,19.94
2018-09-01T08:50:26.756Z,20.00
2018-09-01T08:51:26.709Z,20.10
2018-09-01T08:52:26.663Z,20.06
2018-09-01T08:53:26.622Z,20.10
2018-09-01T08:54:26.575Z,20.09
2018-09-01T08:55:26.517Z,20.10
2018-09-01T08:56:26.492Z,20.02
2018-09-01T08:57:26.422Z,19.94
2018-09-01T08:58:26.372Z,19.88
2018-09-01T08:59:26.338Z,19.88
2018-09-01T09:00:26.294Z,19.77
2018-09-01T09:01:26.252Z,19.81
2018-09-01T09:02:26.202Z,19.86
2018-09-01T09:03:26.155Z,19.82
2018-09-01T09:04:26.116Z,19.86
2018-09-01T09:05:26.075Z,19.86
2018-09-01T09:06:26.019Z,19.84
2018-09-01T09:07:25.969Z,19.86
2018-09-01T09:08:25.923Z,19.85
2018-09-01T09:09:25.862Z,19.86
2018-09-01T09:10:25.838Z,19.86
2018-09-01T09:11:25.771Z,19.94
2018-09-01T09:12:25.744Z,19.96
2018-09-01T09:13:25.692Z,19.88
2018-09-01T09:14:25.638Z,19.92
2018-09-01T09:15:25.599Z,19.94
2018-09-01T09:16:25.554Z,20.02
2018-09-01T09:17:25.505Z,20.00
2018-09-01T09:18:25.475Z,20.04
2018-09-01T09:19:25.405Z,20.11
2018-09-01T09:20:25.361Z,20.04
2018-09-01T09:21:25.320Z,19.96
2018-09-01T09:22:25.281Z,20.04
2018-09-01T09:23:25.225Z,19.96
2018-09-01T09:24:25.181Z,19.91
2018-09-01T09:25:25.140Z,19.88
2018-09-01T09:26:25.071Z,19.85
2018-09-01T09:27:25.050Z,19.94
2018-09-01T09:28:24.986Z,19.84
2018-09-01T09:29:24.948Z,19.86
2018-09-01T09:30:24.907Z,19.89
2018-09-01T09:31:24.856Z,19.84
2018-09-01T09:32:24.812Z,19.92
2018-09-01T09:33:24.767Z,19.86
2018-09-01T09:34:24.721Z,19.96
2018-09-01T09:35:24.672Z,19.88
2018-09-01T09:36:24.628Z,19.94
2018-09-01T09:37:24.577Z,19.89
2018-09-01T09:38:24.532Z,19.91
2018-09-01T09:39:24.481Z,19.85
2018-09-01T09:40:24.443Z,19.85
2018-09-01T09:41:24.401Z,19.74
2018-09-01T09:42:24.334Z,19.81
2018-09-01T09:43:24.305Z,19.82
2018-09-01T09:44:24.263Z,19.79
2018-09-01T09:45:24.212Z,19.91
2018-09-01T09:46:24.165Z,19.82
2018-09-01T09:47:24.124Z,19.89
2018-09-01T09:48:24.073Z,19.91
2018-09-01T09:49:24.023Z,19.88
2018-09-01T09:50:23.981Z,19.88
2018-09-01T09:51:23.927Z,19.84
2018-09-01T09:52:23.882Z,19.79
2018-09-01T09:53:23.842Z,19.76
2018-09-01T09:54:23.792Z,19.79
2018-09-01T09:55:23.749Z,19.88
2018-09-01T09:56:23.699Z,20.00
2018-09-01T09:57:23.660Z,19.94
2018-09-01T09:58:23.739Z,19.85
2018-09-01T09:59:23.571Z,19.86
2018-09-01T10:00:23.521Z,19.94
2018-09-01T10:01:23.475Z,19.91
2018-09-01T10:02:23.430Z,19.94
2018-09-01T10:03:23.403Z,20.02
2018-09-01T10:04:23.337Z,20.07
2018-09-01T10:05:23.295Z,19.99
2018-09-01T10:06:23.239Z,20.13
2018-09-01T10:07:23.197Z,20.13
2018-09-01T10:08:23.154Z,20.14
2018-09-01T10:09:23.095Z,20.14
2018-09-01T10:10:23.063Z,20.34
2018-09-01T10:11:23.017Z,20.43
2018-09-01T10:12:22.972Z,20.51
2018-09-01T10:13:22.922Z,20.55
2018-09-01T10:14:22.880Z,20.56
2018-09-01T10:15:22.833Z,20.56
2018-09-01T10:16:22.776Z,20.51
2018-09-01T10:17:22.728Z,20.56
2018-09-01T10:18:22.698Z,20.58
2018-09-01T10:19:22.663Z,20.65
2018-09-01T10:20:22.710Z,20.69
2018-09-01T10:21:22.567Z,20.69
2018-09-01T10:22:22.505Z,20.85
2018-09-01T10:23:22.462Z,20.97
2018-09-01T10:24:22.437Z,21.17
2018-09-01T10:25:22.387Z,21.51
2018-09-01T10:26:22.337Z,21.61
2018-09-01T10:27:22.295Z,21.76
2018-09-01T10:28:22.256Z,22.00
2018-09-01T10:29:22.197Z,22.22
2018-09-01T10:30:22.195Z,22.41
2018-09-01T10:31:22.133Z,22.63
2018-09-01T10:32:22.094Z,22.87
2018-09-01T10:33:22.048Z,22.85
2018-09-01T10:34:22.016Z,23.09
2018-09-01T10:35:21.977Z,23.27
2018-09-01T10:36:21.936Z,23.44
2018-09-01T10:37:21.894Z,23.61
2018-09-01T10:38:21.873Z,23.84
2018-09-01T10:39:21.817Z,24.06
2018-09-01T10:40:21.778Z,24.17
2018-09-01T10:41:21.738Z,24.47
2018-09-01T10:42:21.699Z,24.58
2018-09-01T10:43:21.668Z,24.76
2018-09-01T10:44:21.634Z,24.80
2018-09-01T10:45:21.601Z,24.88
2018-09-01T10:46:21.575Z,24.99
2018-09-01T10:47:21.528Z,25.13
2018-09-01T10:48:21.493Z,25.43
2018-09-01T10:49:21.451Z,25.32
2018-09-01T10:50:21.421Z,25.53
2018-09-01T10:51:21.391Z,25.73
2018-09-01T10:52:21.358Z,25.75
2018-09-01T10:53:21.330Z,25.75
2018-09-01T10:54:21.282Z,25.96
2018-09-01T10:55:21.254Z,26.07
2018-09-01T10:56:21.223Z,26.05
2018-09-01T10:57:21.173Z,25.93
2018-09-01T10:58:21.149Z,25.80
2018-09-01T10:59:21.124Z,25.83
2018-09-01T11:00:21.075Z,25.70
2018-09-01T11:01:21.039Z,25.62
2018-09-01T11:02:21.002Z,25.51
2018-09-01T11:03:20.969Z,25.46
2018-09-01T11:04:20.929Z,25.44
2018-09-01T11:05:20.898Z,25.29
2018-09-01T11:06:20.858Z,25.25
2018-09-01T11:07:20.811Z,25.18
2018-09-01T11:08:20.780Z,25.17
2018-09-01T11:09:20.727Z,25.10
2018-09-01T11:10:20.692Z,25.06
2018-09-01T11:11:20.657Z,24.93
2018-09-01T11:12:20.605Z,25.07
2018-09-01T11:13:20.579Z,24.99
2018-09-01T11:14:20.536Z,24.93
2018-09-01T11:15:20.486Z,24.95
2018-09-01T11:16:20.467Z,25.06
2018-09-01T11:17:20.433Z,24.91
2018-09-01T11:18:20.376Z,24.78
2018-09-01T11:19:20.337Z,24.85
2018-09-01T11:20:20.402Z,24.78
2018-09-01T11:21:20.252Z,24.70
2018-09-01T11:22:20.208Z,24.74
2018-09-01T11:23:20.164Z,24.68
2018-09-01T11:24:20.124Z,24.66
2018-09-01T11:25:20.083Z,24.60
2018-09-01T11:26:20.026Z,24.61
2018-09-01T11:27:20.018Z,24.65
2018-09-01T11:28:19.957Z,24.58
2018-09-01T11:29:19.916Z,24.65
2018-09-01T11:30:19.874Z,24.68
2018-09-01T11:31:19.836Z,24.63
2018-09-01T11:32:19.775Z,24.65
2018-09-01T11:33:19.745Z,24.65
2018-09-01T11:34:19.708Z,24.76
2018-09-01T11:35:19.663Z,24.80
2018-09-01T11:36:19.619Z,24.76
2018-09-01T11:37:19.576Z,24.76
2018-09-01T11:38:19.557Z,24.68
2018-09-01T11:39:19.501Z,24.74
2018-09-01T11:40:19.467Z,24.80
2018-09-01T11:41:19.399Z,24.80
2018-09-01T11:42:19.362Z,24.73
2018-09-01T11:43:19.413Z,24.70
2018-09-01T11:44:19.279Z,24.68
2018-09-01T11:45:19.239Z,24.65
2018-09-01T11:46:19.198Z,24.65
2018-09-01T11:47:19.147Z,24.73
2018-09-01T11:48:19.103Z,24.69
2018-09-01T11:49:19.058Z,24.69
2018-09-01T11:50:19.005Z,24.57
2018-09-01T11:51:18.976Z,24.74
2018-09-01T11:52:18.951Z,24.77
2018-09-01T11:53:19.024Z,24.74
2018-09-01T11:54:18.849Z,24.63
2018-09-01T11:55:18.808Z,24.70
2018-09-01T11:56:18.788Z,24.70
2018-09-01T11:57:18.718Z,24.73
2018-09-01T11:58:18.659Z,24.74
2018-09-01T11:59:18.633Z,24.88
2018-09-01T12:00:18.595Z,24.89
2018-09-01T12:01:18.532Z,24.89
2018-09-01T12:02:18.509Z,24.86
2018-09-01T12:03:18.457Z,24.74
2018-09-01T12:04:18.419Z,24.77
2018-09-01T12:05:18.377Z,24.77
2018-09-01T12:06:18.346Z,24.88
2018-09-01T12:07:18.291Z,24.76
2018-09-01T12:08:18.249Z,24.77
2018-09-01T12:09:18.254Z,24.76
2018-09-01T12:10:18.193Z,24.74
2018-09-01T12:11:18.119Z,24.74
2018-09-01T12:12:18.075Z,24.81
2018-09-01T12:13:18.025Z,24.84
2018-09-01T12:14:17.984Z,24.95
2018-09-01T12:15:17.943Z,24.89
2018-09-01T12:16:17.900Z,24.93
2018-09-01T12:17:17.860Z,24.89
2018-09-01T12:18:17.815Z,24.92
2018-09-01T12:19:17.767Z,24.91
2018-09-01T12:20:17.713Z,24.93
2018-09-01T12:21:17.686Z,24.92
2018-09-01T12:22:17.695Z,25.06
2018-09-01T12:23:17.602Z,25.03
2018-09-01T12:24:17.551Z,25.06
2018-09-01T12:25:17.509Z,25.13
2018-09-01T12:26:17.460Z,25.16
2018-09-01T12:27:17.423Z,25.21
2018-09-01T12:28:17.502Z,25.32
2018-09-01T12:29:17.337Z,25.38
2018-09-01T12:30:17.300Z,25.38
2018-09-01T12:31:17.255Z,25.53
2018-09-01T12:32:17.215Z,25.48
2018-09-01T12:33:17.168Z,25.62
2018-09-01T12:34:17.126Z,25.60
2018-09-01T12:35:17.119Z,25.73
2018-09-01T12:36:17.143Z,25.85
2018-09-01T12:37:17.002Z,25.73
2018-09-01T12:38:16.937Z,25.75
2018-09-01T12:39:16.907Z,25.73
2018-09-01T12:40:16.872Z,25.80
2018-09-01T12:41:16.812Z,25.78
2018-09-01T12:42:16.786Z,25.83
2018-09-01T12:43:16.747Z,25.77
2018-09-01T12:44:16.696Z,25.81
2018-09-01T12:45:16.658Z,25.81
2018-09-01T12:46:16.611Z,25.80
2018-09-01T12:47:16.562Z,25.80
2018-09-01T12:48:16.510Z,25.88
2018-09-01T12:49:16.481Z,25.88
2018-09-01T12:50:16.439Z,25.99
2018-09-01T12:51:16.397Z,26.00
2018-09-01T12:52:16.365Z,26.06